createdAt,value
2023-05-14T00:01:49.088Z,25.73
2023-05-14T00:04:17.274Z,31.70
2023-05-14T00:06:45.229Z,30.80
2023-05-14T00:09:13.275Z,26.67
2023-05-14T00:11:41.318Z,35.30
2023-05-14T00:14:09.364Z,28.43
2023-05-14T00:16:37.503Z,28.47
2023-05-14T00:19:07.019Z,24.90
2023-05-14T00:21:35.060Z,25.63
2023-05-14T00:24:03.011Z,23.90
2023-05-14T00:26:31.002Z,27.37
2023-05-14T00:28:58.938Z,24.70
2023-05-14T00:31:26.946Z,23.00
2023-05-14T00:33:54.999Z,26.03
2023-05-14T00:36:24.450Z,24.83
2023-05-14T00:38:52.431Z,25.90
2023-05-14T00:41:20.969Z,25.33
2023-05-14T00:43:48.939Z,26.83
2023-05-14T00:46:17.519Z,24.73
2023-05-14T00:48:46.425Z,25.93
2023-05-14T00:51:14.611Z,29.57
2023-05-14T00:53:44.914Z,24.50
2023-05-14T00:56:13.056Z,25.20
2023-05-14T00:58:41.010Z,23.53
2023-05-14T01:01:09.051Z,26.20
2023-05-14T01:03:37.694Z,25.97
2023-05-14T01:06:13.185Z,23.13
2023-05-14T01:08:51.855Z,28.03
2023-05-14T01:11:25.848Z,28.50
2023-05-14T01:14:03.846Z,27.30
2023-05-14T01:16:35.137Z,26.63
2023-05-14T01:19:06.578Z,32.83
2023-05-14T01:21:41.010Z,25.33
2023-05-14T01:24:09.441Z,29.30
2023-05-14T01:26:38.209Z,25.10
2023-05-14T01:29:13.834Z,24.27
2023-05-14T01:31:46.819Z,24.87
2023-05-14T01:34:16.926Z,21.00
2023-05-14T01:36:46.759Z,24.73
2023-05-14T01:39:15.894Z,21.67
2023-05-14T01:41:45.080Z,21.90
2023-05-14T01:44:13.780Z,23.27
2023-05-14T01:46:41.841Z,22.43
2023-05-14T01:49:09.864Z,21.60
2023-05-14T01:51:37.904Z,23.13
2023-05-14T01:54:07.297Z,19.43
2023-05-14T01:56:35.360Z,21.87
2023-05-14T01:59:03.345Z,24.27
2023-05-14T02:01:31.784Z,25.17
2023-05-14T02:04:01.072Z,22.17
2023-05-14T02:06:29.081Z,20.30
2023-05-14T02:08:57.084Z,23.07
2023-05-14T02:11:26.390Z,24.27
2023-05-14T02:13:54.332Z,26.33
2023-05-14T02:16:22.300Z,24.30
2023-05-14T02:18:50.387Z,26.87
2023-05-14T02:21:18.410Z,25.03
2023-05-14T02:23:46.414Z,23.53
2023-05-14T02:26:14.387Z,20.23
2023-05-14T02:28:43.838Z,23.30
2023-05-14T02:31:11.802Z,23.77
2023-05-14T02:33:39.856Z,21.60
2023-05-14T02:36:08.581Z,23.00
2023-05-14T02:38:36.532Z,20.97
2023-05-14T02:41:04.608Z,21.93
2023-05-14T02:43:32.569Z,23.07
2023-05-14T02:46:01.949Z,24.40
2023-05-14T02:48:29.967Z,22.97
2023-05-14T02:50:57.914Z,21.70
2023-05-14T02:53:26.047Z,23.37
2023-05-14T02:55:54.031Z,22.10
2023-05-14T02:58:28.088Z,22.67
2023-05-14T03:00:56.684Z,20.53
2023-05-14T03:03:26.558Z,22.50
2023-05-14T03:05:55.134Z,22.50
2023-05-14T03:08:23.142Z,21.13
2023-05-14T03:10:51.110Z,28.50
2023-05-14T03:13:20.732Z,31.73
2023-05-14T03:15:48.840Z,25.93
2023-05-14T03:18:16.937Z,26.07
2023-05-14T03:20:46.302Z,25.20
2023-05-14T03:23:14.899Z,26.90
2023-05-14T03:25:42.984Z,23.93
2023-05-14T03:28:10.985Z,24.10
2023-05-14T03:30:39.096Z,25.70
2023-05-14T03:33:07.240Z,29.07
2023-05-14T03:35:35.332Z,23.10
2023-05-14T03:38:04.661Z,24.93
2023-05-14T03:40:32.696Z,25.77
2023-05-14T03:43:00.785Z,29.77
2023-05-14T03:45:30.426Z,27.07
2023-05-14T03:47:58.516Z,21.93
2023-05-14T03:50:26.709Z,20.73
2023-05-14T03:52:55.069Z,24.17
2023-05-14T03:55:24.692Z,24.53
2023-05-14T03:57:52.695Z,22.50
2023-05-14T04:00:21.432Z,24.10
2023-05-14T04:02:49.801Z,23.90
2023-05-14T04:05:18.043Z,22.53
2023-05-14T04:07:46.385Z,22.47
2023-05-14T04:10:14.520Z,21.40
2023-05-14T04:12:43.848Z,22.10
2023-05-14T04:15:12.647Z,20.27
2023-05-14T04:17:40.711Z,22.57
2023-05-14T04:20:09.819Z,19.87
2023-05-14T04:22:37.810Z,20.40
2023-05-14T04:25:06.389Z,18.63
2023-05-14T04:27:34.514Z,18.60
2023-05-14T04:30:04.000Z,22.17
2023-05-14T04:32:32.061Z,18.77
2023-05-14T04:35:00.011Z,18.10
2023-05-14T04:37:27.967Z,18.17
2023-05-14T04:39:55.944Z,19.03
2023-05-14T04:42:24.141Z,18.50
2023-05-14T04:44:52.290Z,16.73
2023-05-14T04:47:22.285Z,19.63
2023-05-14T04:49:50.417Z,19.10
2023-05-14T04:52:18.415Z,16.80
2023-05-14T04:54:46.502Z,14.77
2023-05-14T04:57:14.529Z,18.20
2023-05-14T04:59:42.535Z,16.77
2023-05-14T05:02:11.590Z,14.40
2023-05-14T05:04:40.968Z,17.17
2023-05-14T05:07:08.920Z,18.37
2023-05-14T05:09:36.894Z,19.00
2023-05-14T05:12:05.476Z,13.77
2023-05-14T05:14:33.570Z,14.47
2023-05-14T05:17:01.556Z,14.47
2023-05-14T05:19:42.461Z,15.43
2023-05-14T05:22:12.869Z,15.07
2023-05-14T05:24:40.859Z,14.17
2023-05-14T05:27:08.887Z,14.00
2023-05-14T05:29:36.840Z,14.00
2023-05-14T05:32:05.232Z,14.83
2023-05-14T05:34:33.260Z,14.93
2023-05-14T05:37:01.225Z,11.97
2023-05-14T05:39:34.711Z,14.23
2023-05-14T05:42:03.208Z,14.60
2023-05-14T05:44:31.227Z,12.17
2023-05-14T05:46:59.400Z,11.60
2023-05-14T05:49:27.479Z,11.83
2023-05-14T05:51:55.460Z,10.73
2023-05-14T05:54:25.384Z,12.87
2023-05-14T05:56:54.749Z,11.00
2023-05-14T05:59:22.766Z,11.67
2023-05-14T06:01:50.761Z,9.20
2023-05-14T06:04:18.815Z,9.30
2023-05-14T06:06:46.794Z,9.53
2023-05-14T06:09:14.737Z,10.83
2023-05-14T06:11:43.186Z,8.73
2023-05-14T06:14:12.537Z,8.40
2023-05-14T06:16:40.615Z,8.30
2023-05-14T06:19:08.789Z,8.60
2023-05-14T06:21:36.916Z,10.47
2023-05-14T06:24:05.259Z,10.43
2023-05-14T06:26:33.304Z,8.07
2023-05-14T06:29:01.543Z,8.53
2023-05-14T06:31:31.048Z,9.20
2023-05-14T06:33:59.035Z,9.60
2023-05-14T06:36:27.033Z,9.80
2023-05-14T06:38:55.009Z,7.97
2023-05-14T06:41:23.013Z,7.20
2023-05-14T06:43:50.965Z,7.33
2023-05-14T06:46:18.965Z,7.27
2023-05-14T06:48:48.344Z,7.40
2023-05-14T06:51:16.601Z,8.77
2023-05-14T06:53:44.639Z,7.60
2023-05-14T06:56:13.652Z,7.15
2023-05-14T06:58:41.673Z,7.43
2023-05-14T07:01:09.740Z,7.10
2023-05-14T07:03:37.721Z,7.25
2023-05-14T07:06:07.802Z,7.35
2023-05-14T07:08:36.148Z,7.77
2023-05-14T07:11:04.250Z,10.63
2023-05-14T07:13:32.265Z,7.78
2023-05-14T07:16:00.627Z,6.80
2023-05-14T07:18:28.854Z,8.23
2023-05-14T07:20:56.840Z,6.87
2023-05-14T07:23:26.217Z,7.00
2023-05-14T07:25:54.231Z,6.38
2023-05-14T07:28:22.295Z,7.15
2023-05-14T07:30:50.242Z,7.18
2023-05-14T07:33:18.221Z,6.93
2023-05-14T07:35:46.378Z,7.78
2023-05-14T07:38:14.426Z,8.85
2023-05-14T07:40:43.938Z,8.55
2023-05-14T07:43:12.358Z,6.93
2023-05-14T07:45:40.328Z,7.38
2023-05-14T07:48:08.634Z,9.95
2023-05-14T07:50:36.802Z,7.93
2023-05-14T07:53:04.989Z,7.97
2023-05-14T07:55:32.998Z,8.75
2023-05-14T07:58:02.388Z,7.15
2023-05-14T08:00:30.765Z,8.95
2023-05-14T08:02:58.890Z,7.25
2023-05-14T08:05:27.374Z,7.45
2023-05-14T08:07:55.419Z,6.88
2023-05-14T08:10:23.787Z,7.53
2023-05-14T08:12:51.966Z,7.43
2023-05-14T08:15:21.654Z,6.60
2023-05-14T08:17:49.669Z,6.75
2023-05-14T08:20:17.866Z,6.88
2023-05-14T08:22:45.814Z,7.00
2023-05-14T08:25:13.881Z,10.45
2023-05-14T08:27:41.915Z,7.78
2023-05-14T08:30:10.438Z,7.15
2023-05-14T08:32:39.758Z,7.28
2023-05-14T08:35:08.463Z,6.90
2023-05-14T08:37:36.421Z,6.82
2023-05-14T08:40:04.759Z,9.02
2023-05-14T08:42:33.339Z,9.73
2023-05-14T08:45:02.995Z,7.05
2023-05-14T08:47:32.166Z,6.45
2023-05-14T08:50:04.442Z,6.80
2023-05-14T08:52:33.078Z,6.90
2023-05-14T08:55:04.862Z,8.13
2023-05-14T08:57:34.286Z,6.72
2023-05-14T09:00:06.792Z,6.60
2023-05-14T09:02:36.844Z,6.45
2023-05-14T09:05:07.428Z,8.00
2023-05-14T09:07:35.491Z,6.68
2023-05-14T09:10:03.986Z,8.02
2023-05-14T09:12:32.323Z,8.65
2023-05-14T09:15:00.303Z,6.63
2023-05-14T09:17:28.991Z,7.68
2023-05-14T09:19:57.561Z,6.65
2023-05-14T09:22:30.202Z,7.68
2023-05-14T09:25:06.194Z,7.35
2023-05-14T09:27:34.771Z,6.13
2023-05-14T09:30:07.641Z,9.30
2023-05-14T09:32:40.190Z,7.70
2023-05-14T09:35:17.635Z,7.90
2023-05-14T09:37:49.765Z,6.15
2023-05-14T09:40:19.678Z,6.47
2023-05-14T09:42:48.322Z,6.32
2023-05-14T09:45:16.901Z,6.43
2023-05-14T09:47:46.042Z,6.28
2023-05-14T09:50:14.365Z,7.25
2023-05-14T09:52:42.383Z,7.85
2023-05-14T09:55:11.862Z,7.30
2023-05-14T09:57:39.924Z,20.50
2023-05-14T10:00:10.300Z,12.25
2023-05-14T10:02:41.302Z,8.38
2023-05-14T10:05:10.450Z,8.13
2023-05-14T10:07:43.449Z,7.10
2023-05-14T10:10:17.584Z,6.90
2023-05-14T10:12:52.462Z,6.20
2023-05-14T10:15:25.076Z,6.25
2023-05-14T10:18:00.313Z,22.63
2023-05-14T10:20:29.556Z,6.50
2023-05-14T10:22:57.781Z,6.80
2023-05-14T10:25:27.988Z,8.77
2023-05-14T10:27:56.316Z,9.50
2023-05-14T10:30:24.705Z,11.50
2023-05-14T10:33:08.210Z,8.48
2023-05-14T10:35:58.387Z,7.95
2023-05-14T10:38:28.480Z,6.57
2023-05-14T10:41:03.163Z,7.32
2023-05-14T10:43:32.327Z,8.40
2023-05-14T10:46:01.582Z,7.30
2023-05-14T10:48:29.865Z,7.15
2023-05-14T10:50:58.804Z,13.77
2023-05-14T10:53:37.260Z,9.23
2023-05-14T10:56:08.949Z,5.95
2023-05-14T10:58:38.400Z,8.13
2023-05-14T11:01:08.339Z,12.02
2023-05-14T11:03:41.978Z,8.95
2023-05-14T11:06:11.095Z,15.43
2023-05-14T11:08:39.979Z,7.32
2023-05-14T11:11:10.576Z,6.32
2023-05-14T11:13:39.066Z,5.60
2023-05-14T11:16:21.679Z,7.68
2023-05-14T11:18:55.812Z,5.88
2023-05-14T11:21:23.968Z,5.60
2023-05-14T11:23:51.954Z,7.68
2023-05-14T11:26:22.226Z,6.22
2023-05-14T11:28:50.380Z,12.50
2023-05-14T11:31:19.031Z,19.08
2023-05-14T11:33:47.558Z,9.63
2023-05-14T11:36:15.565Z,11.18
2023-05-14T11:38:51.554Z,5.43
2023-05-14T11:41:22.998Z,6.00
2023-05-14T11:43:51.426Z,8.27
2023-05-14T11:46:20.022Z,8.75
2023-05-14T11:48:48.501Z,5.85
2023-05-14T11:51:16.577Z,15.50
2023-05-14T11:53:46.008Z,8.88
2023-05-14T11:56:14.057Z,5.30
2023-05-14T11:58:49.234Z,9.57
2023-05-14T12:01:17.333Z,5.43
2023-05-14T12:03:45.527Z,5.63
2023-05-14T12:06:13.565Z,8.07
2023-05-14T12:08:41.740Z,5.90
2023-05-14T12:11:10.326Z,6.95
2023-05-14T12:13:38.399Z,5.88
2023-05-14T12:16:08.193Z,7.18
2023-05-14T12:18:36.363Z,8.52
2023-05-14T12:21:05.278Z,5.32
2023-05-14T12:23:33.723Z,6.03
2023-05-14T12:26:06.960Z,7.47
2023-05-14T12:28:38.566Z,6.32
2023-05-14T12:31:08.139Z,4.85
2023-05-14T12:33:36.120Z,5.75
2023-05-14T12:36:20.708Z,5.05
2023-05-14T12:38:50.630Z,5.13
2023-05-14T12:41:18.948Z,5.57
2023-05-14T12:43:49.589Z,5.07
2023-05-14T12:46:19.140Z,7.00
2023-05-14T12:48:47.347Z,5.13
2023-05-14T12:51:15.908Z,6.15
2023-05-14T12:53:44.033Z,5.75
2023-05-14T12:56:12.180Z,5.03
2023-05-14T12:58:40.583Z,6.57
2023-05-14T13:01:08.766Z,6.25
2023-05-14T13:03:38.260Z,5.30
2023-05-14T13:06:06.521Z,5.18
2023-05-14T13:08:34.498Z,5.72
2023-05-14T13:11:02.527Z,5.18
2023-05-14T13:13:30.611Z,5.05
2023-05-14T13:15:58.747Z,5.00
2023-05-14T13:18:27.259Z,5.13
2023-05-14T13:20:56.606Z,5.10
2023-05-14T13:23:24.885Z,4.70
2023-05-14T13:25:52.842Z,4.80
2023-05-14T13:28:20.807Z,7.47
2023-05-14T13:31:06.884Z,4.72
2023-05-14T13:33:36.416Z,4.80
2023-05-14T13:36:06.758Z,5.47
2023-05-14T13:38:34.866Z,5.75
2023-05-14T13:41:03.162Z,5.00
2023-05-14T13:43:31.793Z,4.85
2023-05-14T13:46:00.151Z,5.32
2023-05-14T13:48:28.788Z,5.13
2023-05-14T13:50:56.814Z,4.65
2023-05-14T13:53:26.657Z,6.40
2023-05-14T13:55:56.645Z,4.88
2023-05-14T13:58:25.193Z,4.90
2023-05-14T14:00:54.134Z,5.00
2023-05-14T14:03:22.347Z,5.15
2023-05-14T14:05:51.644Z,5.35
2023-05-14T14:08:23.824Z,4.90
2023-05-14T14:10:55.380Z,4.82
2023-05-14T14:13:24.464Z,4.93
2023-05-14T14:15:52.691Z,4.93
2023-05-14T14:18:20.799Z,4.78
2023-05-14T14:20:49.185Z,4.47
2023-05-14T14:23:17.204Z,5.47
2023-05-14T14:25:45.299Z,4.60
2023-05-14T14:28:14.731Z,5.85
2023-05-14T14:30:43.846Z,5.65
2023-05-14T14:33:12.369Z,4.97
2023-05-14T14:35:40.532Z,5.93
2023-05-14T14:38:08.513Z,4.82
2023-05-14T14:40:36.580Z,4.50
2023-05-14T14:43:04.596Z,5.80
2023-05-14T14:45:34.068Z,4.40
2023-05-14T14:48:31.348Z,4.93
2023-05-14T14:50:59.773Z,5.15
2023-05-14T14:53:28.004Z,4.75
2023-05-14T14:55:56.447Z,6.30
2023-05-14T14:58:25.169Z,5.00
2023-05-14T15:00:56.388Z,5.80
2023-05-14T15:03:25.968Z,6.25
2023-05-14T15:05:54.398Z,4.93
2023-05-14T15:08:27.357Z,5.35
2023-05-14T15:10:55.676Z,4.50
2023-05-14T15:13:24.617Z,5.53
2023-05-14T15:15:54.340Z,5.07
2023-05-14T15:18:22.477Z,4.80
2023-05-14T15:20:50.695Z,5.78
2023-05-14T15:23:18.686Z,5.28
2023-05-14T15:25:46.772Z,4.80
2023-05-14T15:28:14.791Z,4.80
2023-05-14T15:30:42.774Z,4.70
2023-05-14T15:33:12.323Z,4.53
2023-05-14T15:35:40.495Z,5.55
2023-05-14T15:38:08.526Z,5.28
2023-05-14T15:40:36.507Z,5.18
2023-05-14T15:43:04.567Z,5.22
2023-05-14T15:45:32.597Z,4.63
2023-05-14T15:48:00.957Z,4.75
2023-05-14T15:50:30.432Z,5.25
2023-05-14T15:52:58.396Z,7.50
2023-05-14T15:55:26.415Z,6.55
2023-05-14T15:57:54.389Z,5.28
2023-05-14T16:00:22.892Z,4.78
2023-05-14T16:02:51.160Z,4.90
2023-05-14T16:05:19.292Z,6.25
2023-05-14T16:07:48.813Z,5.28
2023-05-14T16:10:16.859Z,5.40
2023-05-14T16:12:44.847Z,6.28
2023-05-14T16:15:12.992Z,7.45
2023-05-14T16:17:41.036Z,4.95
2023-05-14T16:20:09.948Z,8.65
2023-05-14T16:22:37.928Z,5.18
2023-05-14T16:25:07.931Z,5.00
2023-05-14T16:27:36.040Z,5.28
2023-05-14T16:30:04.519Z,7.30
2023-05-14T16:32:32.529Z,5.35
2023-05-14T16:35:02.469Z,5.70
2023-05-14T16:37:30.629Z,4.60
2023-05-14T16:39:58.584Z,5.95
2023-05-14T16:42:27.993Z,4.63
2023-05-14T16:44:55.963Z,4.80
2023-05-14T16:47:23.956Z,5.80
2023-05-14T16:49:51.901Z,6.35
2023-05-14T16:52:20.040Z,5.20
2023-05-14T16:54:47.979Z,5.30
2023-05-14T16:57:15.954Z,4.97
2023-05-14T16:59:45.261Z,4.95
2023-05-14T17:02:13.234Z,5.32
2023-05-14T17:04:42.280Z,5.88
2023-05-14T17:07:10.357Z,5.25
2023-05-14T17:09:38.507Z,5.30
2023-05-14T17:12:07.140Z,6.78
2023-05-14T17:14:35.075Z,5.95
2023-05-14T17:17:05.356Z,5.97
2023-05-14T17:19:33.354Z,5.93
2023-05-14T17:22:01.301Z,6.43
2023-05-14T17:24:29.277Z,5.00
2023-05-14T17:26:57.269Z,5.30
2023-05-14T17:29:25.336Z,7.50
2023-05-14T17:31:53.497Z,6.78
2023-05-14T17:34:22.970Z,5.50
2023-05-14T17:36:51.116Z,5.40
2023-05-14T17:39:19.075Z,6.53
2023-05-14T17:41:47.224Z,5.35
2023-05-14T17:44:15.193Z,5.85
2023-05-14T17:46:44.811Z,6.05
2023-05-14T17:49:12.942Z,7.15
2023-05-14T17:51:42.302Z,8.07
2023-05-14T17:54:10.377Z,5.20
2023-05-14T17:56:38.628Z,5.72
2023-05-14T17:59:07.060Z,8.30
2023-05-14T18:01:35.201Z,5.50
2023-05-14T18:04:03.328Z,8.20
2023-05-14T18:06:31.376Z,7.13
2023-05-14T18:09:00.675Z,5.05
2023-05-14T18:11:32.766Z,4.93
2023-05-14T18:14:01.097Z,7.05
2023-05-14T18:16:29.253Z,4.80
2023-05-14T18:18:57.347Z,6.97
2023-05-14T18:21:25.343Z,6.10
2023-05-14T18:23:53.279Z,4.95
2023-05-14T18:26:23.175Z,5.47
2023-05-14T18:28:51.162Z,5.32
2023-05-14T18:31:19.247Z,6.88
2023-05-14T18:33:47.374Z,4.93
2023-05-14T18:36:15.365Z,6.78
2023-05-14T18:38:43.318Z,5.45
2023-05-14T18:41:11.261Z,5.25
2023-05-14T18:43:40.579Z,5.38
2023-05-14T18:46:08.591Z,5.30
2023-05-14T18:48:36.566Z,5.30
2023-05-14T18:51:05.415Z,6.03
2023-05-14T18:53:33.732Z,6.22
2023-05-14T18:56:01.763Z,8.25
2023-05-14T18:58:29.745Z,7.85
2023-05-14T19:00:59.101Z,9.90
2023-05-14T19:03:27.251Z,9.35
2023-05-14T19:05:55.433Z,6.90
2023-05-14T19:08:23.466Z,8.15
2023-05-14T19:10:51.768Z,7.78
2023-05-14T19:13:19.698Z,8.30
2023-05-14T19:15:47.734Z,8.57
2023-05-14T19:18:17.685Z,6.95
2023-05-14T19:20:46.660Z,6.65
2023-05-14T19:23:14.607Z,9.82
2023-05-14T19:25:42.568Z,8.82
2023-05-14T19:28:10.549Z,9.20
2023-05-14T19:30:38.533Z,11.07
2023-05-14T19:33:06.516Z,11.25
2023-05-14T19:35:35.993Z,12.13
2023-05-14T19:38:03.957Z,13.10
2023-05-14T19:40:31.910Z,11.85
2023-05-14T19:42:59.848Z,12.05
2023-05-14T19:45:27.934Z,13.32
2023-05-14T19:47:55.911Z,11.15
2023-05-14T19:50:23.875Z,12.73
2023-05-14T19:52:53.245Z,11.40
2023-05-14T19:55:21.233Z,13.27
2023-05-14T19:57:49.211Z,12.88
2023-05-14T20:00:17.590Z,11.20
2023-05-14T20:02:45.669Z,12.55
2023-05-14T20:05:14.043Z,10.90
2023-05-14T20:07:42.604Z,12.00
2023-05-14T20:10:12.379Z,10.60
2023-05-14T20:12:40.414Z,8.50
2023-05-14T20:15:09.378Z,8.23
2023-05-14T20:17:38.705Z,9.05
2023-05-14T20:20:09.125Z,11.15
2023-05-14T20:22:38.318Z,10.13
2023-05-14T20:25:07.088Z,10.35
2023-05-14T20:27:36.471Z,10.68
2023-05-14T20:30:04.783Z,13.18
2023-05-14T20:32:32.797Z,9.43
2023-05-14T20:35:02.173Z,11.05
2023-05-14T20:37:31.204Z,8.68
2023-05-14T20:39:59.219Z,10.82
2023-05-14T20:42:28.015Z,10.20
2023-05-14T20:44:57.312Z,10.70
2023-05-14T20:47:30.425Z,14.15
2023-05-14T20:49:58.421Z,10.70
2023-05-14T20:52:26.777Z,9.82
2023-05-14T20:54:54.793Z,11.55
2023-05-14T20:57:22.805Z,12.93
2023-05-14T20:59:50.808Z,13.55
2023-05-14T21:02:20.323Z,13.93
2023-05-14T21:04:48.487Z,18.05
2023-05-14T21:07:16.457Z,14.38
2023-05-14T21:09:46.501Z,16.50
2023-05-14T21:12:14.618Z,16.00
2023-05-14T21:14:42.811Z,16.50
2023-05-14T21:17:10.770Z,14.60
2023-05-14T21:19:40.073Z,15.68
2023-05-14T21:22:08.164Z,18.38
2023-05-14T21:24:36.097Z,15.63
2023-05-14T21:27:04.135Z,19.67
2023-05-14T21:29:32.115Z,17.55
2023-05-14T21:32:00.220Z,22.77
2023-05-14T21:34:29.813Z,17.35
2023-05-14T21:37:00.523Z,19.10
2023-05-14T21:39:28.485Z,19.77
2023-05-14T21:41:56.486Z,16.43
2023-05-14T21:44:24.431Z,13.10
2023-05-14T21:46:52.397Z,12.03
2023-05-14T21:49:20.801Z,15.32
2023-05-14T21:51:52.900Z,14.32
2023-05-14T21:54:22.641Z,13.25
2023-05-14T21:56:50.984Z,14.68
2023-05-14T21:59:18.940Z,14.23
2023-05-14T22:02:05.584Z,13.23
2023-05-14T22:04:35.266Z,12.50
2023-05-14T22:07:03.579Z,14.20
2023-05-14T22:09:32.901Z,16.30
2023-05-14T22:12:00.952Z,13.97
2023-05-14T22:14:28.949Z,16.13
2023-05-14T22:16:57.550Z,15.93
2023-05-14T22:19:26.816Z,18.58
2023-05-14T22:21:55.160Z,13.73
2023-05-14T22:24:23.182Z,15.37
2023-05-14T22:26:52.610Z,14.40
2023-05-14T22:29:20.582Z,14.73
2023-05-14T22:31:48.649Z,14.70
2023-05-14T22:34:16.717Z,15.93
2023-05-14T22:36:44.787Z,12.93
2023-05-14T22:39:13.586Z,16.88
2023-05-14T22:41:41.762Z,13.53
2023-05-14T22:44:11.118Z,16.92
2023-05-14T22:46:39.191Z,13.07
2023-05-14T22:49:07.234Z,13.60
2023-05-14T22:51:35.184Z,11.63
2023-05-14T22:54:03.120Z,9.33
2023-05-14T22:56:31.150Z,11.73
2023-05-14T22:59:00.312Z,9.85
2023-05-14T23:01:30.409Z,8.13
2023-05-14T23:03:58.415Z,7.53
2023-05-14T23:06:27.704Z,9.80
2023-05-14T23:08:55.759Z,8.77
2023-05-14T23:11:23.973Z,8.07
2023-05-14T23:13:52.009Z,8.13
2023-05-14T23:16:20.506Z,7.10
2023-05-14T23:18:50.001Z,8.68
2023-05-14T23:21:18.024Z,7.00
2023-05-14T23:23:46.747Z,8.85
2023-05-14T23:26:14.779Z,7.63
2023-05-14T23:28:42.772Z,7.80
2023-05-14T23:31:10.741Z,7.38
2023-05-14T23:33:39.863Z,7.05
2023-05-14T23:36:10.087Z,7.43
2023-05-14T23:38:38.174Z,9.80
2023-05-14T23:41:06.197Z,7.07
2023-05-14T23:43:34.208Z,8.07
2023-05-14T23:46:02.312Z,7.17
2023-05-14T23:48:30.717Z,8.80
2023-05-14T23:50:58.719Z,8.73
2023-05-14T23:53:28.068Z,7.82
2023-05-14T23:55:56.157Z,9.17
2023-05-14T23:58:24.199Z,7.53
